createdAt,value
2022-08-30T00:02:20.828Z,13.55
2022-08-30T00:04:48.379Z,15.18
2022-08-30T00:07:15.674Z,16.08
2022-08-30T00:09:42.558Z,14.57
2022-08-30T00:12:09.835Z,15.93
2022-08-30T00:14:36.951Z,17.83
2022-08-30T00:17:03.925Z,21.42
2022-08-30T00:19:30.724Z,13.75
2022-08-30T00:21:57.773Z,15.00
2022-08-30T00:24:24.564Z,16.48
2022-08-30T00:26:51.365Z,16.35
2022-08-30T00:29:18.230Z,13.20
2022-08-30T00:31:45.060Z,15.68
2022-08-30T00:34:11.913Z,16.45
2022-08-30T00:36:38.734Z,14.55
2022-08-30T00:39:06.392Z,15.45
2022-08-30T00:41:33.318Z,14.60
2022-08-30T00:44:00.778Z,14.23
2022-08-30T00:46:28.113Z,16.25
2022-08-30T00:48:56.103Z,16.35
2022-08-30T00:51:24.268Z,20.75
2022-08-30T00:53:54.964Z,14.10
2022-08-30T00:56:25.213Z,17.85
2022-08-30T00:58:57.311Z,16.40
2022-08-30T01:01:25.776Z,14.85
2022-08-30T01:03:53.527Z,14.48
2022-08-30T01:06:20.631Z,15.27
2022-08-30T01:08:48.070Z,11.38
2022-08-30T01:11:19.136Z,17.00
2022-08-30T01:13:47.397Z,13.77
2022-08-30T01:16:15.260Z,15.85
2022-08-30T01:18:42.623Z,14.13
2022-08-30T01:21:42.519Z,13.73
2022-08-30T01:24:09.574Z,11.30
2022-08-30T01:26:36.736Z,13.90
2022-08-30T01:29:08.665Z,13.45
2022-08-30T01:31:37.086Z,13.40
2022-08-30T01:34:07.687Z,14.77
2022-08-30T01:36:37.657Z,14.80
2022-08-30T01:39:17.003Z,16.95
2022-08-30T01:41:44.183Z,14.05
2022-08-30T01:44:12.793Z,12.02
2022-08-30T01:46:43.275Z,15.15
2022-08-30T01:49:13.684Z,13.82
2022-08-30T01:51:41.906Z,15.02
2022-08-30T01:54:09.373Z,16.85
2022-08-30T01:56:36.490Z,15.82
2022-08-30T01:59:03.887Z,22.48
2022-08-30T02:01:33.332Z,18.45
2022-08-30T02:04:00.652Z,13.38
2022-08-30T02:06:28.007Z,13.00
2022-08-30T02:08:55.098Z,14.45
2022-08-30T02:11:22.511Z,13.45
2022-08-30T02:13:49.725Z,16.55
2022-08-30T02:16:22.939Z,14.77
2022-08-30T02:18:51.453Z,14.85
2022-08-30T02:21:18.414Z,12.98
2022-08-30T02:23:45.723Z,13.63
2022-08-30T02:26:13.678Z,14.98
2022-08-30T02:28:49.509Z,13.32
2022-08-30T02:31:19.477Z,13.98
2022-08-30T02:33:48.589Z,16.35
2022-08-30T02:36:15.703Z,14.13
2022-08-30T02:38:42.534Z,14.50
2022-08-30T02:41:09.427Z,14.80
2022-08-30T02:43:36.248Z,16.23
2022-08-30T02:46:03.174Z,16.83
2022-08-30T02:48:30.062Z,14.85
2022-08-30T02:50:57.011Z,13.05
2022-08-30T02:53:23.927Z,19.70
2022-08-30T02:55:53.788Z,15.00
2022-08-30T02:58:20.637Z,14.45
2022-08-30T03:00:47.511Z,17.58
2022-08-30T03:03:14.463Z,20.13
2022-08-30T03:05:41.466Z,14.43
2022-08-30T03:08:09.524Z,16.23
2022-08-30T03:10:36.567Z,15.25
2022-08-30T03:13:03.542Z,14.77
2022-08-30T03:15:30.498Z,18.08
2022-08-30T03:17:58.519Z,15.55
2022-08-30T03:20:25.584Z,16.42
2022-08-30T03:22:52.879Z,20.17
2022-08-30T03:25:21.099Z,14.93
2022-08-30T03:27:48.659Z,16.35
2022-08-30T03:30:18.390Z,22.42
2022-08-30T03:32:45.336Z,18.15
2022-08-30T03:35:13.952Z,15.95
2022-08-30T03:37:41.342Z,22.33
2022-08-30T03:40:09.321Z,22.23
2022-08-30T03:42:37.327Z,18.58
2022-08-30T03:45:05.967Z,17.70
2022-08-30T03:47:32.846Z,16.30
2022-08-30T03:50:00.134Z,18.80
2022-08-30T03:52:27.407Z,23.90
2022-08-30T03:54:54.390Z,16.85
2022-08-30T03:57:24.453Z,17.30
2022-08-30T03:59:52.249Z,20.33
2022-08-30T04:02:20.388Z,19.40
2022-08-30T04:04:47.310Z,24.33
2022-08-30T04:07:14.478Z,19.52
2022-08-30T04:09:41.873Z,21.63
2022-08-30T04:12:09.326Z,19.23
2022-08-30T04:14:36.120Z,19.15
2022-08-30T04:17:03.175Z,20.10
2022-08-30T04:19:31.257Z,20.25
2022-08-30T04:21:58.079Z,21.63
2022-08-30T04:24:25.409Z,23.10
2022-08-30T04:26:52.428Z,19.80
2022-08-30T04:29:19.396Z,19.88
2022-08-30T04:31:46.619Z,20.40
2022-08-30T04:34:14.367Z,17.42
2022-08-30T04:36:41.273Z,19.02
2022-08-30T04:39:08.303Z,19.77
2022-08-30T04:41:37.089Z,16.25
2022-08-30T04:44:04.168Z,18.95
2022-08-30T04:46:31.097Z,22.60
2022-08-30T04:48:57.989Z,15.40
2022-08-30T04:51:24.985Z,17.38
2022-08-30T04:53:51.959Z,18.25
2022-08-30T04:56:22.346Z,15.07
2022-08-30T04:58:52.201Z,15.23
2022-08-30T05:01:25.454Z,13.65
2022-08-30T05:03:55.451Z,13.50
2022-08-30T05:06:23.410Z,13.60
2022-08-30T05:08:51.901Z,14.43
2022-08-30T05:11:19.053Z,13.30
2022-08-30T05:13:46.235Z,13.90
2022-08-30T05:16:17.819Z,13.07
2022-08-30T05:18:47.281Z,11.98
2022-08-30T05:21:17.132Z,12.45
2022-08-30T05:23:44.474Z,10.85
2022-08-30T05:26:15.784Z,11.05
2022-08-30T05:28:43.658Z,10.35
2022-08-30T05:31:24.083Z,9.90
2022-08-30T05:33:52.610Z,12.60
2022-08-30T05:36:21.685Z,9.25
2022-08-30T05:38:48.499Z,9.02
2022-08-30T05:41:15.585Z,7.57
2022-08-30T05:43:42.414Z,7.40
2022-08-30T05:46:12.589Z,8.27
2022-08-30T05:48:40.515Z,6.55
2022-08-30T05:51:29.319Z,8.88
2022-08-30T05:53:57.905Z,7.00
2022-08-30T05:56:32.836Z,6.80
2022-08-30T05:59:00.540Z,6.15
2022-08-30T06:01:33.762Z,7.65
2022-08-30T06:04:04.061Z,5.65
2022-08-30T06:06:33.983Z,7.88
2022-08-30T06:09:00.962Z,6.40
2022-08-30T06:11:29.510Z,5.07
2022-08-30T06:13:56.877Z,6.82
2022-08-30T06:16:26.244Z,5.50
2022-08-30T06:18:55.708Z,7.32
2022-08-30T06:21:29.329Z,5.57
2022-08-30T06:23:57.352Z,5.63
2022-08-30T06:26:25.576Z,7.63
2022-08-30T06:28:52.576Z,4.80
2022-08-30T06:31:21.638Z,4.78
2022-08-30T06:33:48.909Z,4.38
2022-08-30T06:36:19.425Z,5.10
2022-08-30T06:38:46.921Z,5.53
2022-08-30T06:41:18.665Z,4.00
2022-08-30T06:43:49.329Z,6.15
2022-08-30T06:46:22.924Z,3.65
2022-08-30T06:48:50.090Z,4.05
2022-08-30T06:51:24.301Z,4.63
2022-08-30T06:53:51.822Z,3.40
2022-08-30T06:56:19.568Z,4.47
2022-08-30T06:58:47.106Z,4.60
2022-08-30T07:01:16.649Z,5.38
2022-08-30T07:03:43.566Z,3.75
2022-08-30T07:06:11.155Z,3.83
2022-08-30T07:08:39.230Z,4.75
2022-08-30T07:11:07.650Z,3.63
2022-08-30T07:13:36.611Z,2.85
2022-08-30T07:16:11.711Z,2.72
2022-08-30T07:18:50.999Z,2.92
2022-08-30T07:21:31.782Z,4.00
2022-08-30T07:23:59.450Z,3.58
2022-08-30T07:26:35.119Z,3.63
2022-08-30T07:29:02.803Z,3.03
2022-08-30T07:31:30.385Z,3.38
2022-08-30T07:33:57.597Z,8.65
2022-08-30T07:36:25.328Z,7.35
2022-08-30T07:38:54.511Z,4.50
2022-08-30T07:41:25.727Z,4.55
2022-08-30T07:43:53.611Z,3.10
2022-08-30T07:46:21.444Z,2.75
2022-08-30T07:48:48.585Z,2.33
2022-08-30T07:51:18.348Z,3.50
2022-08-30T07:53:45.580Z,5.10
2022-08-30T07:56:12.795Z,5.72
2022-08-30T07:58:39.797Z,2.45
2022-08-30T08:01:08.552Z,11.40
2022-08-30T08:03:35.835Z,3.72
2022-08-30T08:06:08.257Z,3.78
2022-08-30T08:08:35.764Z,3.83
2022-08-30T08:11:22.169Z,2.78
2022-08-30T08:13:53.292Z,4.82
2022-08-30T08:16:23.007Z,7.70
2022-08-30T08:18:50.332Z,3.88
2022-08-30T08:21:17.279Z,2.63
2022-08-30T08:23:45.039Z,5.32
2022-08-30T08:26:11.858Z,3.92
2022-08-30T08:28:38.875Z,3.97
2022-08-30T08:31:15.106Z,3.47
2022-08-30T08:33:42.210Z,5.40
2022-08-30T08:36:09.569Z,5.13
2022-08-30T08:38:37.069Z,3.42
2022-08-30T08:41:16.152Z,2.97
2022-08-30T08:43:43.532Z,3.00
2022-08-30T08:46:35.530Z,3.22
2022-08-30T08:49:06.273Z,5.35
2022-08-30T08:51:54.832Z,3.63
2022-08-30T08:54:49.178Z,4.97
2022-08-30T08:57:17.155Z,2.47
2022-08-30T08:59:46.058Z,2.78
2022-08-30T09:02:26.757Z,3.67
2022-08-30T09:05:01.839Z,3.15
2022-08-30T09:07:34.982Z,4.65
2022-08-30T09:10:02.515Z,4.63
2022-08-30T09:12:29.417Z,5.80
2022-08-30T09:15:04.633Z,4.32
2022-08-30T09:17:57.164Z,6.80
2022-08-30T09:20:48.331Z,4.18
2022-08-30T09:23:22.950Z,3.95
2022-08-30T09:25:53.336Z,5.22
2022-08-30T09:28:46.455Z,4.38
2022-08-30T09:31:45.292Z,5.13
2022-08-30T09:34:18.509Z,4.97
2022-08-30T09:36:49.718Z,4.10
2022-08-30T09:39:30.306Z,6.85
2022-08-30T09:42:21.090Z,4.85
2022-08-30T09:44:48.140Z,9.52
2022-08-30T09:47:24.199Z,3.35
2022-08-30T09:50:08.795Z,4.93
2022-08-30T09:53:22.790Z,2.97
2022-08-30T09:56:22.553Z,3.67
2022-08-30T09:59:21.481Z,4.57
2022-08-30T10:01:59.521Z,5.13
2022-08-30T10:04:54.864Z,4.25
2022-08-30T10:07:36.435Z,2.67
2022-08-30T10:10:26.623Z,4.03
2022-08-30T10:13:20.717Z,5.25
2022-08-30T10:15:56.154Z,2.28
2022-08-30T10:18:34.838Z,5.40
2022-08-30T10:21:18.920Z,3.17
2022-08-30T10:23:51.529Z,5.53
2022-08-30T10:26:27.383Z,6.15
2022-08-30T10:29:03.376Z,6.32
2022-08-30T10:31:44.453Z,5.13
2022-08-30T10:34:45.446Z,4.97
2022-08-30T10:37:17.995Z,2.47
2022-08-30T10:39:52.518Z,4.20
2022-08-30T10:42:27.066Z,5.90
2022-08-30T10:45:04.445Z,3.60
2022-08-30T10:47:37.238Z,3.65
2022-08-30T10:50:13.782Z,3.40
2022-08-30T10:52:55.692Z,5.72
2022-08-30T10:55:37.449Z,2.97
2022-08-30T10:58:06.319Z,3.20
2022-08-30T11:00:39.685Z,2.88
2022-08-30T11:03:36.357Z,6.72
2022-08-30T11:06:23.722Z,7.53
2022-08-30T11:09:26.888Z,2.45
2022-08-30T11:12:22.427Z,3.72
2022-08-30T11:14:52.235Z,4.22
2022-08-30T11:17:40.817Z,3.55
2022-08-30T11:20:23.149Z,2.17
2022-08-30T11:23:18.845Z,4.80
2022-08-30T11:26:01.942Z,2.30
2022-08-30T11:28:35.844Z,6.10
2022-08-30T11:31:11.757Z,3.03
2022-08-30T11:33:52.200Z,4.65
2022-08-30T11:36:37.689Z,5.10
2022-08-30T11:39:39.929Z,4.53
2022-08-30T11:42:24.702Z,1.70
2022-08-30T11:45:25.006Z,4.18
2022-08-30T11:48:00.774Z,2.10
2022-08-30T11:50:55.051Z,6.38
2022-08-30T11:53:51.970Z,1.88
2022-08-30T11:56:28.523Z,3.38
2022-08-30T11:59:01.816Z,3.30
2022-08-30T12:01:51.681Z,2.45
2022-08-30T12:04:19.539Z,7.05
2022-08-30T12:06:48.337Z,2.38
2022-08-30T12:09:24.011Z,2.28
2022-08-30T12:11:59.958Z,2.92
2022-08-30T12:14:44.862Z,4.28
2022-08-30T12:17:45.504Z,2.60
2022-08-30T12:20:26.277Z,6.03
2022-08-30T12:22:54.742Z,3.13
2022-08-30T12:25:33.702Z,2.92
2022-08-30T12:28:22.871Z,4.05
2022-08-30T12:30:51.215Z,3.70
2022-08-30T12:33:41.497Z,5.65
2022-08-30T12:36:14.103Z,6.65
2022-08-30T12:38:41.883Z,11.00
2022-08-30T12:41:09.113Z,4.47
2022-08-30T12:43:41.514Z,1.90
2022-08-30T12:46:12.664Z,3.58
2022-08-30T12:48:43.738Z,2.28
2022-08-30T12:51:38.950Z,3.75
2022-08-30T12:54:19.275Z,4.25
2022-08-30T12:56:50.503Z,2.50
2022-08-30T12:59:53.993Z,5.05
2022-08-30T13:02:28.584Z,4.50
2022-08-30T13:04:56.798Z,4.95
2022-08-30T13:07:35.483Z,4.70
2022-08-30T13:10:13.559Z,3.15
2022-08-30T13:27:49.561Z,3.13
2022-08-30T13:30:16.944Z,3.78
2022-08-30T13:32:45.144Z,4.85
2022-08-30T13:35:12.811Z,3.88
2022-08-30T13:37:49.386Z,4.40
2022-08-30T13:40:20.554Z,4.78
2022-08-30T13:42:47.716Z,3.03
2022-08-30T13:48:04.142Z,2.10
2022-08-30T13:50:31.697Z,3.55
2022-08-30T13:52:58.584Z,3.55
2022-08-30T13:55:25.529Z,5.03
2022-08-30T13:57:54.427Z,8.00
2022-08-30T14:00:23.708Z,4.68
2022-08-30T14:02:56.116Z,3.15
2022-08-30T14:11:12.978Z,2.00
2022-08-30T14:16:31.351Z,2.15
2022-08-30T14:18:59.330Z,3.35
2022-08-30T14:21:27.126Z,2.33
2022-08-30T14:23:55.964Z,7.95
2022-08-30T14:26:32.796Z,4.03
2022-08-30T14:29:05.390Z,3.95
2022-08-30T14:31:37.683Z,2.97
2022-08-30T14:34:05.585Z,2.92
2022-08-30T14:36:34.563Z,3.00
2022-08-30T14:39:02.302Z,2.63
2022-08-30T14:41:33.869Z,5.28
2022-08-30T14:44:01.406Z,2.60
2022-08-30T14:46:28.358Z,3.35
2022-08-30T14:48:55.332Z,5.80
2022-08-30T14:51:23.651Z,6.50
2022-08-30T14:53:54.149Z,3.83
2022-08-30T14:56:22.470Z,5.88
2022-08-30T14:58:50.782Z,1.75
2022-08-30T15:01:19.717Z,3.53
2022-08-30T15:03:47.006Z,5.35
2022-08-30T15:06:14.258Z,3.55
2022-08-30T15:08:41.312Z,3.13
2022-08-30T15:11:13.924Z,5.53
2022-08-30T15:13:42.533Z,2.00
2022-08-30T15:16:17.687Z,3.53
2022-08-30T15:18:44.791Z,2.17
2022-08-30T15:21:12.123Z,2.85
2022-08-30T15:23:39.862Z,3.75
2022-08-30T15:26:08.303Z,4.72
2022-08-30T15:28:37.057Z,12.98
2022-08-30T15:31:08.745Z,2.95
2022-08-30T15:33:37.431Z,4.63
2022-08-30T15:36:07.944Z,6.18
2022-08-30T15:38:35.771Z,6.70
2022-08-30T15:41:05.962Z,2.38
2022-08-30T15:43:33.828Z,6.10
2022-08-30T15:46:19.407Z,4.18
2022-08-30T15:48:46.915Z,5.57
2022-08-30T15:51:16.802Z,3.20
2022-08-30T15:53:44.997Z,3.58
2022-08-30T15:56:12.022Z,4.20
2022-08-30T15:58:39.712Z,3.15
2022-08-30T16:01:08.256Z,6.18
2022-08-30T16:03:37.777Z,10.68
2022-08-30T16:06:04.907Z,3.47
2022-08-30T16:08:31.710Z,7.20
2022-08-30T16:10:58.547Z,4.32
2022-08-30T16:13:25.343Z,3.33
2022-08-30T16:15:52.352Z,3.72
2022-08-30T16:18:19.216Z,4.03
2022-08-30T16:20:46.187Z,13.13
2022-08-30T16:23:13.179Z,4.28
2022-08-30T16:25:41.080Z,5.80
2022-08-30T16:28:09.529Z,6.43
2022-08-30T16:30:36.796Z,9.52
2022-08-30T16:33:03.824Z,8.10
2022-08-30T16:35:30.657Z,6.82
2022-08-30T16:37:57.788Z,3.28
2022-08-30T16:40:24.672Z,5.30
2022-08-30T16:42:51.881Z,6.05
2022-08-30T16:45:19.311Z,4.72
2022-08-30T16:47:46.204Z,6.28
2022-08-30T16:50:13.272Z,5.80
2022-08-30T16:52:43.959Z,3.03
2022-08-30T16:55:11.151Z,4.90
2022-08-30T16:57:38.743Z,6.60
2022-08-30T17:00:13.197Z,4.15
2022-08-30T17:02:44.414Z,3.13
2022-08-30T17:05:21.780Z,6.28
2022-08-30T17:07:50.749Z,4.50
2022-08-30T17:10:19.234Z,5.80
2022-08-30T17:12:50.398Z,16.52
2022-08-30T17:15:19.927Z,6.30
2022-08-30T17:17:47.880Z,6.90
2022-08-30T17:20:16.046Z,5.22
2022-08-30T17:22:42.914Z,7.22
2022-08-30T17:25:13.257Z,4.65
2022-08-30T17:27:40.410Z,7.30
2022-08-30T17:30:09.644Z,7.10
2022-08-30T17:32:36.451Z,7.25
2022-08-30T17:35:04.298Z,5.43
2022-08-30T17:37:33.352Z,8.05
2022-08-30T17:40:00.669Z,7.18
2022-08-30T17:42:29.689Z,7.65
2022-08-30T17:44:57.527Z,4.75
2022-08-30T17:47:28.370Z,8.60
2022-08-30T17:49:55.469Z,6.70
2022-08-30T17:52:22.257Z,6.13
2022-08-30T17:54:50.563Z,7.47
2022-08-30T17:57:18.013Z,9.25
2022-08-30T17:59:45.622Z,6.80
2022-08-30T18:02:14.148Z,5.25
2022-08-30T18:04:42.808Z,8.13
2022-08-30T18:07:15.737Z,10.65
2022-08-30T18:09:43.029Z,10.20
2022-08-30T18:12:11.557Z,5.38
2022-08-30T18:14:39.550Z,6.97
2022-08-30T18:17:06.961Z,7.93
2022-08-30T18:19:33.820Z,7.22
2022-08-30T18:22:03.158Z,5.75
2022-08-30T18:24:30.349Z,6.72
2022-08-30T18:26:58.586Z,5.88
2022-08-30T18:29:29.196Z,6.68
2022-08-30T18:32:02.041Z,6.07
2022-08-30T18:34:29.730Z,11.13
2022-08-30T18:36:57.022Z,5.65
2022-08-30T18:39:24.056Z,5.35
2022-08-30T18:41:52.906Z,5.97
2022-08-30T18:44:28.186Z,8.02
2022-08-30T18:46:57.364Z,9.15
2022-08-30T18:49:25.993Z,9.20
2022-08-30T18:51:53.458Z,5.47
2022-08-30T18:54:20.463Z,7.20
2022-08-30T18:56:47.309Z,8.05
2022-08-30T18:59:14.167Z,5.80
2022-08-30T19:01:42.606Z,9.35
2022-08-30T19:04:11.281Z,7.32
2022-08-30T19:06:49.983Z,10.00
2022-08-30T19:09:17.044Z,7.68
2022-08-30T19:11:45.027Z,9.63
2022-08-30T19:14:12.126Z,10.25
2022-08-30T19:16:40.906Z,11.05
2022-08-30T19:19:10.127Z,8.02
2022-08-30T19:21:40.136Z,10.68
2022-08-30T19:24:07.830Z,12.80
2022-08-30T19:26:36.078Z,7.95
2022-08-30T19:29:04.999Z,8.57
2022-08-30T19:31:32.177Z,8.77
2022-08-30T19:33:59.520Z,6.70
2022-08-30T19:36:28.859Z,8.20
2022-08-30T19:38:55.819Z,9.07
2022-08-30T19:41:23.361Z,8.65
2022-08-30T19:43:51.735Z,11.68
2022-08-30T19:46:18.661Z,10.55
2022-08-30T19:48:45.559Z,9.00
2022-08-30T19:51:14.391Z,7.75
2022-08-30T19:53:42.243Z,8.48
2022-08-30T19:56:09.139Z,13.23
2022-08-30T19:58:36.152Z,9.60
2022-08-30T20:01:12.158Z,7.40
2022-08-30T20:03:51.896Z,9.55
2022-08-30T20:06:19.944Z,8.93
2022-08-30T20:08:47.197Z,9.38
2022-08-30T20:11:16.486Z,11.75
2022-08-30T20:13:45.120Z,10.32
2022-08-30T20:16:13.156Z,10.18
2022-08-30T20:18:42.598Z,7.00
2022-08-30T20:21:13.552Z,8.35
2022-08-30T20:23:42.056Z,4.93
2022-08-30T20:26:12.829Z,8.43
2022-08-30T20:28:40.400Z,9.43
2022-08-30T20:31:08.184Z,6.05
2022-08-30T20:33:37.714Z,6.45
2022-08-30T20:36:12.451Z,6.20
2022-08-30T20:38:40.064Z,3.60
2022-08-30T20:41:16.934Z,6.22
2022-08-30T20:43:45.460Z,6.68
2022-08-30T20:46:16.018Z,5.32
2022-08-30T20:48:43.526Z,4.55
2022-08-30T20:51:12.894Z,5.40
2022-08-30T20:53:41.019Z,7.35
2022-08-30T20:56:17.163Z,4.75
2022-08-30T20:58:45.087Z,7.13
2022-08-30T21:01:13.433Z,13.15
2022-08-30T21:03:41.207Z,9.02
2022-08-30T21:06:08.329Z,7.72
2022-08-30T21:08:35.474Z,6.40
2022-08-30T21:11:02.306Z,7.45
2022-08-30T21:13:29.176Z,5.30
2022-08-30T21:16:00.695Z,7.65
2022-08-30T21:18:33.004Z,5.68
2022-08-30T21:21:07.258Z,6.72
2022-08-30T21:23:35.736Z,7.97
2022-08-30T21:26:10.210Z,8.38
2022-08-30T21:28:37.159Z,9.23
2022-08-30T21:31:13.548Z,9.05
2022-08-30T21:33:41.706Z,3.70
2022-08-30T21:36:27.879Z,5.95
2022-08-30T21:39:00.507Z,5.80
2022-08-30T21:41:29.335Z,4.93
2022-08-30T21:44:02.020Z,7.40
2022-08-30T21:46:30.093Z,7.15
2022-08-30T21:49:01.277Z,6.10
2022-08-30T21:51:31.602Z,4.00
2022-08-30T21:53:58.722Z,4.60
2022-08-30T21:56:25.630Z,5.40
2022-08-30T21:58:52.449Z,5.55
2022-08-30T22:01:23.429Z,5.45
2022-08-30T22:03:54.955Z,6.13
2022-08-30T22:06:25.268Z,4.93
2022-08-30T22:08:59.336Z,5.30
2022-08-30T22:11:27.030Z,7.18
2022-08-30T22:13:55.197Z,4.30
2022-08-30T22:16:23.099Z,4.57
2022-08-30T22:18:51.204Z,5.22
2022-08-30T22:21:21.246Z,4.72
2022-08-30T22:23:48.099Z,3.78
2022-08-30T22:26:17.826Z,5.32
2022-08-30T22:28:44.760Z,10.65
2022-08-30T22:31:14.326Z,6.60
2022-08-30T22:33:41.898Z,7.00
2022-08-30T22:36:21.020Z,4.85
2022-08-30T22:38:48.866Z,4.65
2022-08-30T22:41:18.145Z,7.88
2022-08-30T22:43:45.345Z,4.32
2022-08-30T22:46:12.624Z,5.65
2022-08-30T22:48:41.953Z,6.93
2022-08-30T22:51:09.954Z,10.68
2022-08-30T22:53:37.074Z,7.32
2022-08-30T22:56:23.550Z,8.95
2022-08-30T22:58:50.446Z,9.75
2022-08-30T23:01:30.176Z,7.40
2022-08-30T23:03:58.277Z,10.48
2022-08-30T23:06:25.591Z,11.73
2022-08-30T23:08:52.725Z,9.63
2022-08-30T23:11:20.315Z,8.40
2022-08-30T23:13:47.705Z,7.95
2022-08-30T23:16:16.350Z,8.95
2022-08-30T23:18:45.886Z,8.63
2022-08-30T23:21:19.311Z,7.57
2022-08-30T23:24:04.468Z,7.72
2022-08-30T23:26:49.858Z,10.67
2022-08-30T23:29:35.109Z,9.40
2022-08-30T23:32:20.971Z,9.88
2022-08-30T23:37:53.161Z,11.40
2022-08-30T23:40:39.978Z,11.00
2022-08-30T23:43:26.284Z,10.23
2022-08-30T23:46:15.180Z,10.30
2022-08-30T23:49:07.154Z,10.45
2022-08-30T23:51:54.184Z,8.80
2022-08-30T23:54:39.723Z,9.52
2022-08-30T23:57:25.409Z,6.90
